Time;durP1;ratioP1;P1;durP2;ratioP2;P2;SDS_P1;SDS_P2;PMS_P1;PMS_P2;Temp;Humidity;BMP_temperature;BMP_pressure;BME280_temperature;BME280_humidity;BME280_pressure;Samples;Min_cycle;Max_cycle;Signal;HPM_P1;HPM_P2
2022/08/02 00:00:08;;;;;;;1.77;1.60;;;17.80;99.90;;;;;;4927506;29;20028;-39
2022/08/02 00:02:33;;;;;;;2.35;1.42;;;17.80;99.90;;;;;;4925455;28;20036;-40
2022/08/02 00:04:59;;;;;;;1.80;1.40;;;17.80;99.90;;;;;;4924375;29;20097;-39
2022/08/02 00:07:24;;;;;;;1.90;1.50;;;17.80;99.90;;;;;;4930005;29;20024;-39
2022/08/02 00:09:50;;;;;;;1.95;1.73;;;17.80;99.90;;;;;;4927980;29;20027;-38
2022/08/02 00:12:16;;;;;;;2.60;1.40;;;17.70;99.90;;;;;;4928417;29;20039;-37
2022/08/02 00:14:42;;;;;;;2.58;1.60;;;17.80;99.90;;;;;;4928104;29;20067;-37
2022/08/02 00:17:07;;;;;;;1.63;1.45;;;17.80;99.90;;;;;;4925919;29;20381;-39
2022/08/02 00:19:33;;;;;;;3.72;1.85;;;17.80;99.90;;;;;;4914224;29;20799;-39
2022/08/02 00:21:59;;;;;;;1.83;1.50;;;17.80;99.90;;;;;;4906188;29;20056;-36
2022/08/02 00:24:24;;;;;;;2.10;1.90;;;17.80;99.90;;;;;;4906961;29;20036;-40
2022/08/02 00:26:50;;;;;;;1.88;1.40;;;17.80;99.90;;;;;;4905372;29;20074;-38
2022/08/02 00:29:15;;;;;;;1.88;1.73;;;17.80;99.90;;;;;;4909246;29;20028;-39
2022/08/02 00:31:41;;;;;;;2.15;1.67;;;17.70;99.90;;;;;;4907943;29;20075;-39
2022/08/02 00:34:07;;;;;;;4.05;1.80;;;17.70;99.90;;;;;;4909069;29;20024;-35
2022/08/02 00:36:32;;;;;;;3.40;1.58;;;17.70;99.90;;;;;;4902817;29;20409;-36
2022/08/02 00:38:58;;;;;;;2.55;1.70;;;17.60;99.90;;;;;;4908434;29;20508;-37
2022/08/02 00:41:23;;;;;;;3.00;1.65;;;17.60;99.90;;;;;;4910356;29;20064;-39
2022/08/02 00:43:50;;;;;;;3.53;2.20;;;17.30;99.90;;;;;;4907744;29;20549;-39
2022/08/02 00:46:18;;;;;;;2.42;1.73;;;17.10;99.90;;;;;;4905075;29;20067;-36
2022/08/02 00:48:44;;;;;;;1.70;1.60;;;17.00;99.90;;;;;;4905194;29;20084;-39
2022/08/02 00:51:11;;;;;;;1.40;1.30;;;17.10;99.90;;;;;;4907530;29;20036;-39
2022/08/02 00:53:37;;;;;;;2.85;1.67;;;17.30;99.90;;;;;;4910869;29;20159;-38
2022/08/02 00:56:03;;;;;;;1.55;1.30;;;17.40;99.90;;;;;;4907209;29;20028;-38
2022/08/02 00:58:28;;;;;;;1.67;1.58;;;17.40;99.90;;;;;;4911804;29;20047;-39
2022/08/02 01:00:56;;;;;;;3.78;1.80;;;17.40;99.90;;;;;;4911457;29;20036;-40
2022/08/02 01:03:23;;;;;;;2.88;1.70;;;17.50;99.90;;;;;;4913505;29;20489;-39
2022/08/02 01:05:49;;;;;;;2.83;1.70;;;17.40;99.90;;;;;;4907759;29;20753;-39
2022/08/02 01:08:14;;;;;;;5.68;1.90;;;17.50;99.90;;;;;;4913855;29;20031;-40
2022/08/02 01:10:40;;;;;;;3.13;1.83;;;17.40;99.90;;;;;;4909104;29;20028;-40
2022/08/02 01:13:06;;;;;;;2.55;1.70;;;17.40;99.90;;;;;;4909901;29;20111;-36
2022/08/02 01:15:37;;;;;;;2.95;1.55;;;17.40;99.90;;;;;;4908840;29;20032;-40
2022/08/02 01:18:14;;;;;;;4.28;1.80;;;17.50;99.90;;;;;;4910471;29;20034;-39
2022/08/02 01:20:52;;;;;;;2.95;1.60;;;17.40;99.90;;;;;;4909198;29;20041;-39
2022/08/02 01:23:32;;;;;;;2.30;1.40;;;17.30;99.90;;;;;;4912246;29;20478;-39
2022/08/02 01:25:58;;;;;;;1.70;1.60;;;17.30;99.90;;;;;;4913619;29;20465;-37
2022/08/02 01:28:44;;;;;;;3.90;1.70;;;17.30;99.90;;;;;;4909582;29;20020;-39
2022/08/02 01:31:25;;;;;;;2.55;1.50;;;17.40;99.90;;;;;;4907814;29;20044;-39
2022/08/02 01:33:53;;;;;;;2.13;1.50;;;17.40;99.90;;;;;;4898243;29;20028;-39
2022/08/02 01:36:20;;;;;;;;;;;17.40;99.90;;;;;;4910169;29;20047;-40
2022/08/02 01:38:48;;;;;;;3.78;1.40;;;17.40;99.90;;;;;;4912056;29;19911;-39
2022/08/02 01:41:18;;;;;;;2.08;1.52;;;17.40;99.90;;;;;;4911374;29;20115;-40
2022/08/02 01:43:46;;;;;;;1.65;1.30;;;17.50;99.90;;;;;;4911836;29;20035;-39
2022/08/02 01:46:14;;;;;;;;;;;17.40;99.90;;;;;;4908013;29;20032;-40
2022/08/02 01:48:41;;;;;;;4.60;1.40;;;17.40;99.90;;;;;;4911671;29;19962;-39
2022/08/02 01:51:09;;;;;;;2.07;1.40;;;17.40;99.90;;;;;;4891877;29;20035;-40
2022/08/02 01:53:37;;;;;;;1.83;1.60;;;17.40;99.90;;;;;;4912585;29;20031;-39
2022/08/02 01:56:06;;;;;;;1.67;1.20;;;17.40;99.90;;;;;;4910261;29;20024;-40
2022/08/02 01:58:36;;;;;;;5.35;1.63;;;17.40;99.90;;;;;;4912703;29;20107;-40
2022/08/02 02:01:05;;;;;;;2.20;1.67;;;17.40;99.90;;;;;;4910083;29;20553;-39
2022/08/02 02:03:33;;;;;;;1.55;1.30;;;17.30;99.90;;;;;;4911660;29;20028;-39
2022/08/02 02:06:00;;;;;;;2.83;1.75;;;17.30;99.90;;;;;;4909881;29;20048;-38
2022/08/02 02:08:32;;;;;;;2.20;1.70;;;17.30;99.90;;;;;;4910164;29;20040;-40
2022/08/02 02:11:00;;;;;;;2.53;1.48;;;17.30;99.90;;;;;;4912302;29;20489;-40
2022/08/02 02:13:27;;;;;;;2.00;1.80;;;17.20;99.90;;;;;;4911139;29;20845;-38
2022/08/02 02:15:53;;;;;;;1.90;1.50;;;17.10;99.90;;;;;;4908855;29;20457;-39
2022/08/02 02:18:28;;;;;;;2.25;1.50;;;17.00;99.90;;;;;;4909724;29;20067;-40
2022/08/02 02:20:54;;;;;;;4.47;1.40;;;17.00;99.90;;;;;;4911546;29;20020;-40
2022/08/02 02:23:19;;;;;;;1.63;1.50;;;17.00;99.90;;;;;;4908618;29;20047;-38
2022/08/02 02:25:46;;;;;;;2.60;1.50;;;17.00;99.90;;;;;;4910348;29;20043;-39
2022/08/02 02:28:17;;;;;;;3.03;1.70;;;17.00;99.90;;;;;;4908754;29;20497;-38
2022/08/02 02:30:48;;;;;;;1.70;1.40;;;17.00;99.90;;;;;;4908192;29;20518;-40
2022/08/02 02:33:17;;;;;;;2.10;1.42;;;17.00;99.90;;;;;;4912336;29;20489;-40
2022/08/02 02:35:45;;;;;;;1.95;1.52;;;16.80;99.90;;;;;;4907383;29;20040;-40
2022/08/02 02:38:14;;;;;;;4.43;1.55;;;16.70;99.90;;;;;;4910150;29;21080;-37
2022/08/02 02:40:41;;;;;;;1.50;1.40;;;16.60;99.90;;;;;;4910806;29;20083;-39
2022/08/02 02:43:09;;;;;;;1.40;1.30;;;16.50;99.90;;;;;;4911507;29;20024;-39
2022/08/02 02:45:37;;;;;;;2.65;1.60;;;16.50;99.90;;;;;;4910061;29;20028;-37
2022/08/02 02:48:05;;;;;;;1.98;1.50;;;16.50;99.90;;;;;;4907877;29;20032;-40
2022/08/02 02:50:32;;;;;;;3.33;1.75;;;16.50;99.90;;;;;;4909859;29;20043;-39
2022/08/02 02:53:00;;;;;;;2.45;1.40;;;16.60;99.90;;;;;;4910266;29;20405;-39
2022/08/02 02:55:27;;;;;;;1.80;1.40;;;16.60;99.90;;;;;;4893164;29;20202;-40
2022/08/02 02:57:54;;;;;;;3.30;1.30;;;16.30;99.90;;;;;;4905959;29;20100;-38
2022/08/02 03:01:26;;;;;;;5.50;1.52;;;16.00;99.90;;;;;;4908092;29;20036;-39
2022/08/02 03:03:06;;;;;;;1.67;1.48;;;16.00;99.90;;;;;;4909873;29;20035;-40
2022/08/02 03:05:32;;;;;;;1.95;1.20;;;16.10;99.90;;;;;;4906859;29;22099;-37
2022/08/02 03:07:57;;;;;;;1.63;1.30;;;16.00;99.90;;;;;;4907152;29;20032;-40
2022/08/02 03:10:23;;;;;;;1.40;1.30;;;15.90;99.90;;;;;;4893267;29;20043;-39
2022/08/02 03:12:49;;;;;;;2.50;1.42;;;15.80;99.90;;;;;;4909387;29;20047;-39
2022/08/02 03:15:16;;;;;;;1.75;1.33;;;15.80;99.90;;;;;;4908167;29;20028;-39
2022/08/02 03:17:45;;;;;;;1.42;1.33;;;15.80;99.90;;;;;;4908019;29;20028;-39
2022/08/02 03:20:16;;;;;;;2.83;1.83;;;15.90;99.90;;;;;;4909815;29;20044;-37
2022/08/02 03:22:44;;;;;;;2.05;1.50;;;15.90;99.90;;;;;;4908182;29;20088;-40
2022/08/02 03:25:10;;;;;;;3.85;1.73;;;15.90;99.90;;;;;;4908784;29;20402;-40
2022/08/02 03:27:36;;;;;;;1.13;1.05;;;16.00;99.90;;;;;;4906474;29;20126;-37
2022/08/02 03:30:04;;;;;;;1.63;1.30;;;16.00;99.90;;;;;;4910685;29;20553;-38
2022/08/02 03:32:30;;;;;;;1.20;1.10;;;16.00;99.90;;;;;;4906579;29;20044;-40
2022/08/02 03:34:55;;;;;;;1.15;1.05;;;16.00;99.90;;;;;;4912103;29;20583;-37
2022/08/02 03:37:22;;;;;;;2.67;1.00;;;15.90;99.90;;;;;;4907941;29;20282;-39
2022/08/02 03:39:48;;;;;;;1.23;1.13;;;15.80;99.90;;;;;;4907430;29;20401;-36
2022/08/02 03:42:14;;;;;;;2.17;1.33;;;15.70;99.90;;;;;;4907452;29;20043;-39
2022/08/02 03:44:41;;;;;;;1.25;1.10;;;15.50;99.90;;;;;;4908830;29;20082;-40
2022/08/02 03:47:07;;;;;;;3.47;1.80;;;15.40;99.90;;;;;;4905352;29;20047;-39
2022/08/02 03:49:35;;;;;;;2.83;1.63;;;15.50;99.90;;;;;;4907164;29;20039;-38
2022/08/02 03:52:01;;;;;;;1.90;1.45;;;15.40;99.90;;;;;;4906153;29;20075;-39
2022/08/02 03:54:27;;;;;;;1.48;1.38;;;15.40;99.90;;;;;;4909367;29;20032;-38
2022/08/02 03:56:53;;;;;;;2.38;1.58;;;15.40;99.90;;;;;;4907524;29;20063;-37
2022/08/02 03:59:18;;;;;;;3.30;1.95;;;15.60;99.90;;;;;;4908279;29;20317;-38
2022/08/02 04:01:45;;;;;;;2.22;1.98;;;15.60;99.90;;;;;;4891817;29;20035;-40
2022/08/02 04:04:10;;;;;;;1.92;1.80;;;15.60;99.90;;;;;;4908859;29;20024;-38
2022/08/02 04:06:37;;;;;;;3.25;2.00;;;15.60;99.90;;;;;;4907528;29;20047;-38
2022/08/02 04:09:03;;;;;;;2.28;1.77;;;15.70;99.90;;;;;;4904175;29;20044;-36
2022/08/02 04:11:32;;;;;;;1.90;1.77;;;15.60;99.90;;;;;;4907149;29;20032;-36
2022/08/02 04:14:03;;;;;;;2.08;1.88;;;15.60;99.90;;;;;;4909013;29;20466;-36
2022/08/02 04:16:51;;;;;;;2.20;1.73;;;15.70;99.90;;;;;;4909861;29;20041;-39
2022/08/02 04:19:35;;;;;;;;;;;15.60;99.90;;;;;;4902139;29;20237;-40
2022/08/02 04:22:05;;;;;;;2.78;1.98;;;15.50;99.90;;;;;;4909065;29;19925;-39
2022/08/02 04:24:38;;;;;;;2.38;1.88;;;15.50;99.90;;;;;;4912653;29;20486;-40
2022/08/02 04:27:07;;;;;;;2.00;1.80;;;15.40;99.90;;;;;;4908768;29;20047;-40
2022/08/02 04:29:34;;;;;;;5.57;1.85;;;15.30;99.90;;;;;;4911428;29;20512;-39
2022/08/02 04:32:00;;;;;;;2.50;1.85;;;15.30;99.90;;;;;;4908706;29;20041;-40
2022/08/02 04:34:26;;;;;;;3.15;2.13;;;15.20;99.90;;;;;;4913952;29;20051;-40
2022/08/02 04:36:53;;;;;;;2.08;1.80;;;15.20;99.90;;;;;;4913328;29;20517;-40
2022/08/02 04:39:18;;;;;;;2.90;1.65;;;15.10;99.90;;;;;;4911508;29;20020;-39
2022/08/02 04:41:47;;;;;;;1.50;1.40;;;14.90;99.90;;;;;;4906622;29;20052;-40
2022/08/02 04:44:13;;;;;;;2.28;1.48;;;15.10;99.90;;;;;;4912716;29;20090;-36
2022/08/02 04:46:40;;;;;;;1.70;1.60;;;15.00;99.90;;;;;;4892325;29;20505;-40
2022/08/02 04:49:07;;;;;;;1.75;1.48;;;15.10;99.90;;;;;;4911427;29;20036;-40
2022/08/02 04:51:36;;;;;;;1.67;1.48;;;15.10;99.90;;;;;;4911116;29;20044;-38
2022/08/02 04:54:03;;;;;;;1.83;1.58;;;15.30;99.90;;;;;;4912329;29;20024;-40
2022/08/02 04:56:29;;;;;;;4.05;1.92;;;15.40;99.90;;;;;;4890686;29;20040;-39
2022/08/02 04:58:55;;;;;;;2.65;1.80;;;15.50;99.90;;;;;;4909576;29;20032;-40
2022/08/02 05:01:20;;;;;;;2.00;1.80;;;15.60;99.90;;;;;;4911135;29;20115;-40
2022/08/02 05:03:46;;;;;;;2.33;2.00;;;15.80;99.90;;;;;;4912875;29;20477;-40
2022/08/02 05:06:12;;;;;;;4.80;2.35;;;15.90;99.90;;;;;;4912808;29;20505;-37
2022/08/02 05:08:37;;;;;;;4.32;2.40;;;16.10;99.90;;;;;;4907861;29;20032;-37
2022/08/02 05:11:03;;;;;;;3.40;2.30;;;16.30;99.90;;;;;;4909679;29;20078;-37
2022/08/02 05:13:29;;;;;;;3.55;2.50;;;16.40;99.90;;;;;;4911894;29;20052;-40
2022/08/02 05:15:54;;;;;;;2.50;2.30;;;16.50;99.90;;;;;;4912978;29;20020;-39
2022/08/02 05:18:20;;;;;;;3.40;2.45;;;16.60;99.90;;;;;;4911341;29;20052;-39
2022/08/02 05:20:46;;;;;;;5.75;2.88;;;16.70;99.90;;;;;;4911289;29;20051;-36
2022/08/02 05:23:11;;;;;;;3.47;2.55;;;16.90;99.90;;;;;;4907837;29;20032;-40
2022/08/02 05:25:37;;;;;;;2.70;2.15;;;17.00;99.90;;;;;;4911179;29;20062;-38
2022/08/02 05:28:03;;;;;;;2.50;2.30;;;17.00;99.90;;;;;;4909728;29;20118;-40
2022/08/02 05:30:28;;;;;;;3.80;2.60;;;17.20;99.90;;;;;;4907761;29;20123;-37
2022/08/02 05:32:54;;;;;;;5.38;2.83;;;17.20;99.90;;;;;;4911880;29;20043;-39
2022/08/02 05:35:22;;;;;;;4.95;2.90;;;17.30;99.90;;;;;;4906592;29;20028;-38
2022/08/02 05:37:48;;;;;;;;;;;17.40;99.90;;;;;;4893347;29;20146;-38
2022/08/02 05:40:15;;;;;;;5.32;2.75;;;17.40;99.90;;;;;;4909731;29;19910;-38
2022/08/02 05:42:41;;;;;;;3.20;2.40;;;17.40;99.90;;;;;;4909439;29;20035;-38
2022/08/02 05:45:07;;;;;;;6.28;2.78;;;17.40;99.90;;;;;;4909804;29;20028;-38
2022/08/02 05:47:33;;;;;;;3.78;2.50;;;17.60;99.90;;;;;;4903888;29;20051;-37
2022/08/02 05:49:59;;;;;;;3.72;2.60;;;17.60;99.90;;;;;;4909132;29;20067;-38
2022/08/02 05:52:33;;;;;;;3.47;2.28;;;17.80;99.90;;;;;;4893685;29;20130;-38
2022/08/02 05:55:05;;;;;;;4.63;2.45;;;17.80;99.90;;;;;;4908735;29;20445;-40
2022/08/02 05:57:58;;;;;;;2.75;2.25;;;17.80;99.90;;;;;;4908599;29;20027;-40
2022/08/02 06:00:28;;;;;;;5.45;3.78;;;17.70;99.90;;;;;;4903957;29;20095;-37
2022/08/02 06:03:16;;;;;;;2.30;2.10;;;17.60;99.90;;;;;;4906824;29;20036;-39
2022/08/02 06:05:59;;;;;;;3.72;2.45;;;17.80;99.90;;;;;;4906814;29;20032;-40
2022/08/02 06:08:31;;;;;;;3.28;2.60;;;18.10;99.90;;;;;;4907344;29;20044;-38
2022/08/02 06:11:01;;;;;;;3.28;2.60;;;18.00;99.90;;;;;;4908553;29;20043;-39
2022/08/02 06:13:27;;;;;;;3.63;2.50;;;18.10;99.90;;;;;;4909743;29;20119;-38
2022/08/02 06:15:58;;;;;;;2.75;2.25;;;18.20;99.90;;;;;;4909502;29;20020;-40
2022/08/02 06:18:28;;;;;;;4.15;2.70;;;18.40;99.90;;;;;;4914469;29;20044;-40
2022/08/02 06:21:00;;;;;;;4.28;2.42;;;18.40;99.90;;;;;;4922762;29;20477;-39
2022/08/02 06:23:27;;;;;;;2.53;2.33;;;18.20;99.90;;;;;;4928421;29;20149;-36
2022/08/02 06:25:56;;;;;;;4.25;2.58;;;18.20;99.90;;;;;;4924098;29;20385;-39
2022/08/02 06:28:23;;;;;;;3.22;2.50;;;18.20;99.90;;;;;;4928165;29;20035;-39
2022/08/02 06:30:49;;;;;;;3.30;2.90;;;18.30;99.90;;;;;;4928056;28;20032;-40
2022/08/02 06:33:15;;;;;;;3.85;2.78;;;18.50;99.90;;;;;;4929412;29;20042;-37
2022/08/02 06:35:58;;;;;;;3.08;2.58;;;18.60;99.90;;;;;;4927829;29;20034;-37
2022/08/02 06:38:27;;;;;;;5.07;2.63;;;18.50;99.90;;;;;;4930238;29;20027;-40
2022/08/02 06:41:03;;;;;;;4.20;2.47;;;18.80;99.90;;;;;;4923739;29;20032;-37
2022/08/02 06:43:59;;;;;;;3.65;2.47;;;18.90;99.90;;;;;;4929905;29;20485;-39
2022/08/02 06:46:24;;;;;;;5.43;2.70;;;19.10;99.90;;;;;;4928517;29;20065;-39
2022/08/02 06:48:50;;;;;;;4.72;2.78;;;19.30;99.90;;;;;;4928043;28;20028;-38
2022/08/02 06:51:16;;;;;;;4.90;2.90;;;19.40;99.90;;;;;;4926091;29;20519;-39
2022/08/02 06:53:42;;;;;;;4.22;2.70;;;19.50;99.90;;;;;;4925658;29;20098;-40
2022/08/02 06:56:08;;;;;;;4.60;2.63;;;19.50;99.90;;;;;;4927673;29;20035;-40
2022/08/02 06:58:34;;;;;;;4.00;3.35;;;19.60;99.90;;;;;;4927383;29;20053;-40
2022/08/02 07:01:00;;;;;;;4.13;2.83;;;19.70;99.90;;;;;;4922542;28;20043;-39
2022/08/02 07:03:25;;;;;;;3.85;2.85;;;19.90;99.90;;;;;;4926113;29;20035;-39
2022/08/02 07:05:52;;;;;;;3.92;2.95;;;20.00;99.90;;;;;;4925327;29;20095;-40
2022/08/02 07:08:19;;;;;;;4.32;2.63;;;20.20;99.90;;;;;;4928827;29;20509;-39
2022/08/02 07:10:45;;;;;;;4.35;2.70;;;20.40;99.90;;;;;;4926823;29;20481;-40
2022/08/02 07:13:11;;;;;;;4.05;3.00;;;20.50;99.90;;;;;;4926503;29;20020;-39
2022/08/02 07:15:38;;;;;;;4.22;2.80;;;20.70;99.90;;;;;;4928188;29;20030;-38
2022/08/02 07:18:04;;;;;;;3.88;3.45;;;20.60;99.90;;;;;;4926462;29;20032;-38
2022/08/02 07:20:30;;;;;;;4.40;3.20;;;20.30;99.90;;;;;;4927307;29;20035;-39
2022/08/02 07:22:56;;;;;;;5.38;3.42;;;20.50;99.90;;;;;;4926379;29;21790;-39
2022/08/02 07:25:21;;;;;;;5.95;3.50;;;20.80;99.90;;;;;;4928457;29;20138;-39
2022/08/02 07:27:47;;;;;;;6.93;3.60;;;20.50;99.90;;;;;;4928234;29;20031;-37
2022/08/02 07:30:13;;;;;;;4.32;3.63;;;20.60;99.90;;;;;;4925885;29;20075;-37
2022/08/02 07:32:38;;;;;;;4.20;3.50;;;20.70;99.90;;;;;;4924845;28;20075;-37
2022/08/02 07:35:05;;;;;;;5.05;3.00;;;20.90;99.90;;;;;;4924872;29;20037;-38
2022/08/02 07:37:33;;;;;;;3.53;2.63;;;21.30;99.90;;;;;;4926376;29;20035;-37
2022/08/02 07:39:59;;;;;;;4.55;3.25;;;21.50;99.90;;;;;;4927004;29;20028;-39
2022/08/02 07:42:24;;;;;;;3.40;2.92;;;21.70;99.90;;;;;;4928081;29;20039;-38
2022/08/02 07:44:51;;;;;;;5.97;3.22;;;21.70;99.90;;;;;;4926880;29;20023;-37
2022/08/02 07:47:17;;;;;;;4.80;2.83;;;21.80;99.90;;;;;;4926462;29;20154;-40
2022/08/02 07:49:43;;;;;;;5.80;3.10;;;22.00;99.90;;;;;;4927780;29;20405;-40
2022/08/02 07:52:09;;;;;;;3.20;2.90;;;22.20;99.90;;;;;;4924283;29;20040;-38
2022/08/02 07:54:34;;;;;;;3.20;2.58;;;22.50;99.90;;;;;;4931663;29;20030;-40
2022/08/02 07:57:00;;;;;;;4.63;2.92;;;22.70;99.90;;;;;;4926330;29;20059;-40
2022/08/02 07:59:26;;;;;;;3.00;2.65;;;22.60;99.90;;;;;;4926266;29;20055;-40
2022/08/02 08:01:52;;;;;;;3.50;2.83;;;22.60;99.90;;;;;;4926382;28;21675;-39
2022/08/02 08:04:18;;;;;;;4.10;3.67;;;23.00;99.90;;;;;;4929882;29;20028;-40
2022/08/02 08:06:48;;;;;;;3.45;2.85;;;22.80;99.90;;;;;;4941327;29;20122;-40
2022/08/02 08:09:14;;;;;;;3.45;2.60;;;22.70;99.90;;;;;;4930897;29;20149;-40
2022/08/02 08:11:39;;;;;;;3.97;2.50;;;23.10;99.90;;;;;;4930109;29;20157;-40
2022/08/02 08:14:05;;;;;;;3.88;3.22;;;23.30;99.90;;;;;;4931864;29;20030;-39
2022/08/02 08:16:32;;;;;;;4.35;2.80;;;23.10;99.90;;;;;;4929706;29;20493;-40
2022/08/02 08:18:57;;;;;;;4.97;2.55;;;23.40;99.90;;;;;;4931864;29;20071;-39
2022/08/02 08:21:23;;;;;;;3.63;2.40;;;23.30;99.90;;;;;;4929457;29;20070;-40
2022/08/02 08:23:49;;;;;;;2.60;2.40;;;23.30;99.90;;;;;;4928269;29;20043;-39
2022/08/02 08:26:15;;;;;;;4.13;2.40;;;23.60;99.90;;;;;;4930158;29;20071;-38
2022/08/02 08:28:40;;;;;;;3.22;2.65;;;22.90;99.90;;;;;;4929806;29;20036;-40
2022/08/02 08:31:06;;;;;;;3.05;2.50;;;23.20;99.90;;;;;;4928643;28;20040;-40
2022/08/02 08:33:32;;;;;;;3.20;2.22;;;23.70;99.90;;;;;;4926231;29;20571;-38
2022/08/02 08:35:58;;;;;;;2.35;2.10;;;24.20;99.90;;;;;;4927259;29;20548;-40
2022/08/02 08:38:24;;;;;;;2.50;1.88;;;24.40;98.30;;;;;;4926849;29;20039;-40
2022/08/02 08:40:50;;;;;;;3.67;1.77;;;23.90;94.80;;;;;;4926594;29;20036;-39
2022/08/02 08:43:16;;;;;;;2.58;1.80;;;24.20;97.80;;;;;;4926690;29;20027;-40
2022/08/02 08:45:48;;;;;;;2.40;2.17;;;24.50;93.00;;;;;;4925819;29;20067;-40
2022/08/02 08:48:15;;;;;;;1.85;1.70;;;24.00;93.10;;;;;;4927126;29;20036;-40
2022/08/02 08:50:50;;;;;;;2.97;1.90;;;24.00;95.70;;;;;;4928850;29;20523;-39
2022/08/02 08:53:16;;;;;;;2.25;2.03;;;24.60;97.00;;;;;;4927219;29;20118;-40
2022/08/02 08:55:43;;;;;;;2.42;1.83;;;24.30;93.30;;;;;;4924759;29;20020;-39
2022/08/02 08:58:11;;;;;;;1.65;1.55;;;24.50;92.50;;;;;;4931542;29;20039;-40
2022/08/02 09:00:36;;;;;;;1.98;1.70;;;24.80;94.80;;;;;;4930784;28;20500;-40
2022/08/02 09:03:04;;;;;;;2.08;1.60;;;25.40;94.70;;;;;;4930195;29;20036;-39
2022/08/02 09:05:30;;;;;;;1.75;1.50;;;24.80;86.30;;;;;;4930444;29;20067;-36
2022/08/02 09:07:56;;;;;;;2.25;1.75;;;25.10;90.90;;;;;;4928968;29;20043;-37
2022/08/02 09:10:51;;;;;;;1.70;1.60;;;25.60;88.70;;;;;;4927709;29;20043;-37
2022/08/02 09:13:28;;;;;;;2.15;1.38;;;24.80;89.40;;;;;;4920444;29;20095;-40
2022/08/02 09:15:59;;;;;;;1.45;1.35;;;24.70;88.40;;;;;;4930656;29;20485;-40
2022/08/02 09:18:38;;;;;;;1.45;1.35;;;24.70;81.40;;;;;;4925369;29;20048;-40
2022/08/02 09:21:05;;;;;;;1.83;1.70;;;24.30;80.10;;;;;;4910249;29;20043;-40
2022/08/02 09:23:42;;;;;;;2.28;1.67;;;24.50;84.80;;;;;;4909262;29;20028;-40
2022/08/02 09:26:09;;;;;;;2.03;1.80;;;24.90;89.30;;;;;;4907967;29;20115;-38
2022/08/02 09:28:37;;;;;;;3.05;1.70;;;25.00;90.00;;;;;;4905386;29;20276;-38
2022/08/02 09:31:09;;;;;;;2.00;1.70;;;24.70;87.70;;;;;;4908366;29;20055;-40
2022/08/02 09:33:38;;;;;;;1.70;1.60;;;25.00;90.60;;;;;;4906357;29;20075;-40
2022/08/02 09:36:04;;;;;;;1.60;1.50;;;25.50;90.10;;;;;;4907455;29;20031;-40
2022/08/02 09:38:31;;;;;;;2.42;1.50;;;25.90;89.80;;;;;;4908519;29;20032;-41
2022/08/02 09:40:58;;;;;;;1.65;1.50;;;26.10;87.70;;;;;;4905739;29;20024;-41
2022/08/02 09:43:44;;;;;;;3.20;1.90;;;26.00;83.00;;;;;;4911155;29;20032;-39
2022/08/02 09:46:21;;;;;;;1.92;1.45;;;26.00;79.50;;;;;;4907596;29;20216;-40
2022/08/02 09:48:48;;;;;;;1.83;1.63;;;25.40;83.20;;;;;;4908174;29;20036;-40
2022/08/02 09:51:26;;;;;;;2.08;1.88;;;25.80;83.00;;;;;;4909569;29;20036;-40
2022/08/02 09:53:58;;;;;;;2.60;1.60;;;25.10;80.80;;;;;;4908304;29;20031;-39
2022/08/02 09:56:26;;;;;;;2.30;1.60;;;24.90;84.90;;;;;;4908640;29;20853;-40
2022/08/02 09:58:53;;;;;;;1.35;1.27;;;25.60;83.00;;;;;;4909295;29;20021;-40
2022/08/02 10:01:20;;;;;;;2.00;1.50;;;26.10;85.40;;;;;;4908172;29;20052;-40
2022/08/02 10:04:22;;;;;;;1.90;1.50;;;26.90;80.90;;;;;;4907873;29;20028;-38
2022/08/02 10:06:48;;;;;;;1.85;1.75;;;27.10;70.80;;;;;;4881224;29;20208;-37
2022/08/02 10:09:15;;;;;;;1.45;1.35;;;27.10;74.70;;;;;;4910113;29;20042;-40
2022/08/02 10:11:41;;;;;;;1.75;1.65;;;27.10;68.40;;;;;;4911376;29;20382;-40
2022/08/02 10:14:09;;;;;;;1.52;1.42;;;26.80;70.90;;;;;;4908328;29;22154;-39
2022/08/02 10:16:39;;;;;;;2.70;1.73;;;26.50;75.70;;;;;;4908036;29;20067;-36
2022/08/02 10:19:05;;;;;;;2.58;1.67;;;26.20;69.70;;;;;;4918547;29;20761;-40
2022/08/02 10:21:47;;;;;;;1.60;1.50;;;26.30;79.30;;;;;;4929160;29;20035;-40
2022/08/02 10:24:19;;;;;;;1.60;1.50;;;26.50;77.60;;;;;;4927830;29;20784;-40
2022/08/02 10:26:46;;;;;;;1.92;1.45;;;26.60;76.30;;;;;;4930074;29;20447;-40
2022/08/02 10:29:18;;;;;;;1.75;1.48;;;26.80;75.90;;;;;;4928845;29;20604;-39
2022/08/02 10:31:57;;;;;;;1.60;1.50;;;27.10;75.20;;;;;;4928155;28;20477;-40
2022/08/02 10:34:28;;;;;;;1.58;1.48;;;27.50;71.00;;;;;;4928035;29;20078;-39
2022/08/02 10:36:54;;;;;;;1.70;1.30;;;27.30;64.50;;;;;;4929283;29;20020;-38
2022/08/02 10:39:20;;;;;;;1.42;1.33;;;26.90;67.20;;;;;;4928648;29;20111;-40
2022/08/02 10:41:50;;;;;;;1.50;1.40;;;27.00;71.80;;;;;;4928613;29;20114;-39
2022/08/02 10:44:25;;;;;;;1.95;1.55;;;27.20;72.40;;;;;;4929233;29;20019;-37
2022/08/02 10:47:11;;;;;;;2.67;1.23;;;27.50;68.00;;;;;;4928954;29;20039;-38
2022/08/02 10:49:51;;;;;;;2.42;1.25;;;27.70;66.90;;;;;;4928466;29;20036;-40
2022/08/02 10:52:19;;;;;;;2.00;1.50;;;27.30;66.40;;;;;;4929058;29;20063;-39
2022/08/02 10:55:07;;;;;;;1.90;1.50;;;26.30;67.50;;;;;;4929218;29;20556;-37
2022/08/02 10:57:35;;;;;;;1.65;1.55;;;26.80;68.20;;;;;;4911550;29;20020;-40
2022/08/02 11:00:00;;;;;;;1.77;1.58;;;26.80;71.40;;;;;;4928664;29;20039;-39
2022/08/02 11:02:44;;;;;;;2.33;1.40;;;26.90;68.50;;;;;;4925128;28;20048;-40
2022/08/02 11:05:31;;;;;;;1.45;1.35;;;26.90;74.80;;;;;;4928649;29;20040;-37
2022/08/02 11:07:57;;;;;;;2.05;1.35;;;26.40;69.90;;;;;;4929092;29;20039;-38
2022/08/02 11:10:28;;;;;;;1.67;1.10;;;26.60;68.40;;;;;;4927434;29;20094;-39
2022/08/02 11:12:59;;;;;;;2.25;1.20;;;26.70;61.70;;;;;;4927711;29;20123;-38
2022/08/02 11:15:25;;;;;;;1.55;1.45;;;26.90;63.70;;;;;;4928741;29;20135;-37
2022/08/02 11:18:00;;;;;;;1.52;1.35;;;27.10;65.70;;;;;;4928296;29;20114;-39
2022/08/02 11:20:28;;;;;;;1.50;1.40;;;26.70;65.30;;;;;;4927063;29;20047;-40
2022/08/02 11:22:55;;;;;;;1.92;1.33;;;26.60;63.00;;;;;;4925762;29;20035;-41
2022/08/02 11:25:23;;;;;;;1.30;1.20;;;26.70;66.40;;;;;;4927023;29;20065;-40
2022/08/02 11:27:56;;;;;;;1.52;1.42;;;26.40;66.50;;;;;;4927375;29;20291;-39
2022/08/02 11:30:24;;;;;;;1.67;1.30;;;26.60;69.40;;;;;;4927384;28;20106;-39
2022/08/02 11:32:53;;;;;;;1.33;1.20;;;26.60;67.40;;;;;;4927135;29;20046;-40
2022/08/02 11:35:20;;;;;;;4.22;1.30;;;26.70;67.50;;;;;;4926173;29;20046;-39
2022/08/02 11:37:46;;;;;;;1.90;1.80;;;26.80;63.90;;;;;;4927085;29;20078;-39
2022/08/02 11:40:16;;;;;;;1.50;1.40;;;26.70;63.70;;;;;;4926836;29;20486;-39
2022/08/02 11:42:44;;;;;;;5.53;4.00;;;26.80;65.80;;;;;;4928170;29;20490;-39
2022/08/02 11:45:12;;;;;;;1.60;1.50;;;26.40;61.80;;;;;;4928723;29;20114;-38
2022/08/02 11:47:48;;;;;;;;;;;26.40;64.10;;;;;;4927805;29;20046;-39
2022/08/02 11:50:15;;;;;;;1.40;1.30;;;26.40;63.30;;;;;;4924842;29;20390;-39
2022/08/02 11:52:42;;;;;;;1.63;1.10;;;26.30;65.10;;;;;;4923150;29;20036;-37
2022/08/02 11:55:09;;;;;;;1.60;1.50;;;26.10;71.50;;;;;;4938870;29;20552;-37
2022/08/02 11:57:36;;;;;;;1.40;1.30;;;26.20;69.40;;;;;;4926183;29;20106;-36
2022/08/02 12:00:08;;;;;;;1.10;1.10;;;26.40;67.50;;;;;;4927699;29;20291;-39
2022/08/02 12:02:34;;;;;;;1.30;1.15;;;26.40;68.80;;;;;;4927635;28;20040;-40
2022/08/02 12:05:04;;;;;;;1.30;1.20;;;26.40;64.10;;;;;;4926559;29;20082;-39
2022/08/02 12:07:32;;;;;;;1.50;1.40;;;26.10;64.60;;;;;;4928640;29;20039;-39
2022/08/02 12:10:02;;;;;;;2.60;1.30;;;26.40;69.50;;;;;;4923399;29;20146;-38
2022/08/02 12:12:27;;;;;;;1.60;1.50;;;26.30;62.70;;;;;;4926624;29;20039;-39
2022/08/02 12:14:57;;;;;;;1.58;1.20;;;26.30;67.40;;;;;;4927302;29;20031;-36
2022/08/02 12:20:12;;;;;;;1.20;1.20;;;26.50;62.20;;;;;;4926055;29;20087;-38
2022/08/02 12:22:38;;;;;;;1.38;1.27;;;26.20;59.10;;;;;;4925520;29;20500;-39
2022/08/02 12:25:19;;;;;;;1.17;1.08;;;26.20;66.10;;;;;;4927120;29;20050;-38
2022/08/02 12:27:45;;;;;;;3.38;1.30;;;26.10;63.50;;;;;;4925403;29;20031;-37
2022/08/02 12:30:13;;;;;;;1.25;1.15;;;26.30;70.90;;;;;;4925081;29;20023;-39
2022/08/02 12:32:39;;;;;;;1.33;1.10;;;26.40;70.40;;;;;;4924778;28;20040;-39
2022/08/02 12:35:05;;;;;;;2.20;1.13;;;26.40;65.80;;;;;;4924092;29;20024;-39
2022/08/02 12:37:31;;;;;;;1.30;1.23;;;26.40;62.50;;;;;;4927311;29;20095;-38
2022/08/02 12:39:57;;;;;;;1.30;1.20;;;26.30;60.90;;;;;;4925173;29;20079;-39
2022/08/02 12:42:23;;;;;;;1.20;1.20;;;26.20;62.10;;;;;;4925501;29;20065;-38
2022/08/02 12:44:59;;;;;;;1.40;1.30;;;26.20;61.80;;;;;;4923242;29;20702;-36
2022/08/02 12:47:26;;;;;;;1.20;1.17;;;26.40;62.00;;;;;;4925886;29;20524;-40
2022/08/02 12:50:11;;;;;;;1.17;1.10;;;26.40;58.70;;;;;;4928909;29;20507;-39
2022/08/02 12:52:37;;;;;;;1.60;1.30;;;26.50;60.10;;;;;;4929686;29;20151;-40
2022/08/02 12:55:21;;;;;;;1.20;1.10;;;26.40;58.10;;;;;;4924057;29;20111;-38
2022/08/02 12:58:01;;;;;;;1.48;1.38;;;26.40;59.60;;;;;;4927927;29;20035;-39